sensor_id;sensor_type;location;lat;lon;timestamp;pressure;altitude;pressure_sealevel;temperature;humidity
61039;BME280;46919;45.816;3.104;2022-10-16T00:00:52;97586.53;;;13.94;100.00
61039;BME280;46919;45.816;3.104;2022-10-16T00:03:17;97593.31;;;13.97;100.00
61039;BME280;46919;45.816;3.104;2022-10-16T00:05:44;97600.72;;;14.02;100.00
61039;BME280;46919;45.816;3.104;2022-10-16T00:08:11;97603.50;;;14.07;100.00
61039;BME280;46919;45.816;3.104;2022-10-16T00:10:37;97601.34;;;14.09;100.00
61039;BME280;46919;45.816;3.104;2022-10-16T00:13:03;97610.69;;;14.18;100.00
61039;BME280;46919;45.816;3.104;2022-10-16T00:15:30;97606.72;;;14.26;100.00
61039;BME280;46919;45.816;3.104;2022-10-16T00:17:55;97607.00;;;14.29;100.00
61039;BME280;46919;45.816;3.104;2022-10-16T00:20:20;97597.75;;;14.30;100.00
61039;BME280;46919;45.816;3.104;2022-10-16T00:22:46;97595.50;;;14.22;100.00
61039;BME280;46919;45.816;3.104;2022-10-16T00:25:11;97597.13;;;14.18;100.00
61039;BME280;46919;45.816;3.104;2022-10-16T00:27:37;97606.03;;;14.13;100.00
61039;BME280;46919;45.816;3.104;2022-10-16T00:30:02;97599.69;;;14.08;100.00
61039;BME280;46919;45.816;3.104;2022-10-16T00:32:28;97607.28;;;14.06;100.00
61039;BME280;46919;45.816;3.104;2022-10-16T00:34:53;97599.16;;;14.06;100.00
61039;BME280;46919;45.816;3.104;2022-10-16T00:37:21;97602.38;;;14.03;100.00
61039;BME280;46919;45.816;3.104;2022-10-16T00:39:47;97607.81;;;14.03;100.00
61039;BME280;46919;45.816;3.104;2022-10-16T00:42:18;97603.50;;;14.07;100.00
61039;BME280;46919;45.816;3.104;2022-10-16T00:44:51;97605.13;;;14.08;100.00
61039;BME280;46919;45.816;3.104;2022-10-16T00:47:26;97602.38;;;14.03;100.00
61039;BME280;46919;45.816;3.104;2022-10-16T00:49:57;97596.88;;;13.98;100.00
61039;BME280;46919;45.816;3.104;2022-10-16T00:52:23;97604.69;;;13.94;100.00
61039;BME280;46919;45.816;3.104;2022-10-16T00:54:49;97598.16;;;13.90;100.00
61039;BME280;46919;45.816;3.104;2022-10-16T00:57:17;97604.91;;;13.87;100.00
61039;BME280;46919;45.816;3.104;2022-10-16T00:59:43;97599.97;;;13.84;100.00
61039;BME280;46919;45.816;3.104;2022-10-16T01:02:12;97603.88;;;13.93;100.00
61039;BME280;46919;45.816;3.104;2022-10-16T01:04:41;97605.22;;;13.91;100.00
61039;BME280;46919;45.816;3.104;2022-10-16T01:18:13;97606.66;;;13.99;100.00
61039;BME280;46919;45.816;3.104;2022-10-16T01:23:47;97594.47;;;14.01;100.00
61039;BME280;46919;45.816;3.104;2022-10-16T01:29:17;97601.13;;;13.88;100.00
61039;BME280;46919;45.816;3.104;2022-10-16T01:31:48;97598.34;;;13.83;100.00
61039;BME280;46919;45.816;3.104;2022-10-16T01:34:19;97600.81;;;13.85;100.00
61039;BME280;46919;45.816;3.104;2022-10-16T01:37:00;97604.84;;;13.82;100.00
61039;BME280;46919;45.816;3.104;2022-10-16T01:39:31;97604.91;;;13.87;100.00
61039;BME280;46919;45.816;3.104;2022-10-16T01:42:05;97603.03;;;13.88;100.00
61039;BME280;46919;45.816;3.104;2022-10-16T01:44:33;97596.00;;;13.92;100.00
61039;BME280;46919;45.816;3.104;2022-10-16T01:47:01;97592.50;;;13.97;100.00
61039;BME280;46919;45.816;3.104;2022-10-16T01:49:30;97589.78;;;13.97;100.00
61039;BME280;46919;45.816;3.104;2022-10-16T01:51:59;97589.78;;;13.97;100.00
61039;BME280;46919;45.816;3.104;2022-10-16T01:54:27;97588.34;;;13.89;100.00
61039;BME280;46919;45.816;3.104;2022-10-16T01:56:54;97591.25;;;13.82;100.00
61039;BME280;46919;45.816;3.104;2022-10-16T01:59:24;97598.25;;;13.78;100.00
61039;BME280;46919;45.816;3.104;2022-10-16T02:01:55;97591.25;;;13.82;100.00
61039;BME280;46919;45.816;3.104;2022-10-16T02:04:31;97583.50;;;13.91;100.00
61039;BME280;46919;45.816;3.104;2022-10-16T02:06:58;97592.00;;;14.00;100.00
61039;BME280;46919;45.816;3.104;2022-10-16T02:09:24;97593.16;;;14.04;100.00
61039;BME280;46919;45.816;3.104;2022-10-16T02:11:52;97585.69;;;13.94;100.00
61039;BME280;46919;45.816;3.104;2022-10-16T02:14:19;97600.59;;;13.91;100.00
61039;BME280;46919;45.816;3.104;2022-10-16T02:16:47;97602.22;;;13.92;100.00
61039;BME280;46919;45.816;3.104;2022-10-16T02:19:15;97596.25;;;13.90;100.00
61039;BME280;46919;45.816;3.104;2022-10-16T02:21:54;97596.50;;;13.89;100.00
61039;BME280;46919;45.816;3.104;2022-10-16T02:27:08;97595.44;;;13.90;100.00
61039;BME280;46919;45.816;3.104;2022-10-16T02:29:43;97592.22;;;13.93;100.00
61039;BME280;46919;45.816;3.104;2022-10-16T02:32:14;97591.19;;;13.99;100.00
61039;BME280;46919;45.816;3.104;2022-10-16T02:34:41;97586.78;;;13.93;100.00
61039;BME280;46919;45.816;3.104;2022-10-16T02:37:07;97592.41;;;13.86;100.00
61039;BME280;46919;45.816;3.104;2022-10-16T02:39:33;97590.19;;;13.83;100.00
61039;BME280;46919;45.816;3.104;2022-10-16T02:41:59;97598.91;;;13.85;100.00
61039;BME280;46919;45.816;3.104;2022-10-16T02:44:24;97592.72;;;13.90;100.00
61039;BME280;46919;45.816;3.104;2022-10-16T02:46:50;97594.38;;;13.91;100.00
61039;BME280;46919;45.816;3.104;2022-10-16T02:49:15;97596.28;;;13.95;100.00
61039;BME280;46919;45.816;3.104;2022-10-16T02:51:41;97599.84;;;13.96;100.00
61039;BME280;46919;45.816;3.104;2022-10-16T02:54:06;97596.28;;;13.95;100.00
61039;BME280;46919;45.816;3.104;2022-10-16T02:56:32;97602.22;;;13.92;100.00
61039;BME280;46919;45.816;3.104;2022-10-16T02:58:57;97584.00;;;13.88;100.00
61039;BME280;46919;45.816;3.104;2022-10-16T03:01:23;97591.00;;;13.84;100.00
61039;BME280;46919;45.816;3.104;2022-10-16T03:03:49;97585.53;;;13.79;100.00
61039;BME280;46919;45.816;3.104;2022-10-16T03:06:14;97582.03;;;13.83;100.00
61039;BME280;46919;45.816;3.104;2022-10-16T03:08:39;97583.38;;;13.81;100.00
61039;BME280;46919;45.816;3.104;2022-10-16T03:11:05;97585.81;;;13.82;100.00
61039;BME280;46919;45.816;3.104;2022-10-16T03:13:30;97583.91;;;13.83;100.00
61039;BME280;46919;45.816;3.104;2022-10-16T03:15:56;97578.75;;;13.81;100.00
61039;BME280;46919;45.816;3.104;2022-10-16T03:18:21;97581.97;;;13.78;100.00
61039;BME280;46919;45.816;3.104;2022-10-16T03:20:47;97587.97;;;13.80;100.00
61039;BME280;46919;45.816;3.104;2022-10-16T03:23:13;97587.16;;;13.80;100.00
61039;BME280;46919;45.816;3.104;2022-10-16T03:25:39;97589.31;;;13.77;100.00
61039;BME280;46919;45.816;3.104;2022-10-16T03:28:04;97582.03;;;13.83;100.00
61039;BME280;46919;45.816;3.104;2022-10-16T03:30:30;97583.13;;;13.82;100.00
61039;BME280;46919;45.816;3.104;2022-10-16T03:32:55;97588.59;;;13.87;100.00
61039;BME280;46919;45.816;3.104;2022-10-16T03:35:21;97590.81;;;13.90;100.00
61039;BME280;46919;45.816;3.104;2022-10-16T03:37:47;97591.25;;;13.82;100.00
61039;BME280;46919;45.816;3.104;2022-10-16T03:40:13;97591.25;;;13.82;100.00
61039;BME280;46919;45.816;3.104;2022-10-16T03:42:38;97587.78;;;13.87;100.00
61039;BME280;46919;45.816;3.104;2022-10-16T03:45:05;97591.56;;;13.86;100.00
61039;BME280;46919;45.816;3.104;2022-10-16T03:47:30;97595.69;;;13.88;100.00
61039;BME280;46919;45.816;3.104;2022-10-16T03:49:58;97603.53;;;13.85;100.00
61039;BME280;46919;45.816;3.104;2022-10-16T03:52:23;97595.78;;;13.76;100.00
61039;BME280;46919;45.816;3.104;2022-10-16T03:54:49;97598.75;;;13.75;100.00
61039;BME280;46919;45.816;3.104;2022-10-16T03:57:14;97592.91;;;13.83;100.00
61039;BME280;46919;45.816;3.104;2022-10-16T03:59:39;97603.19;;;13.81;100.00
61039;BME280;46919;45.816;3.104;2022-10-16T04:02:05;97600.97;;;13.78;100.00
61039;BME280;46919;45.816;3.104;2022-10-16T04:04:30;97605.84;;;13.76;100.00
61039;BME280;46919;45.816;3.104;2022-10-16T04:06:56;97602.56;;;13.74;100.00
61039;BME280;46919;45.816;3.104;2022-10-16T04:09:21;97593.91;;;13.77;100.00
61039;BME280;46919;45.816;3.104;2022-10-16T04:11:46;97589.31;;;13.77;100.00
61039;BME280;46919;45.816;3.104;2022-10-16T04:14:12;97582.03;;;13.83;100.00
61039;BME280;46919;45.816;3.104;2022-10-16T04:16:37;97587.66;;;13.76;100.00
61039;BME280;46919;45.816;3.104;2022-10-16T04:19:03;97595.53;;;13.78;100.00
61039;BME280;46919;45.816;3.104;2022-10-16T04:21:28;97595.75;;;13.71;100.00
61039;BME280;46919;45.816;3.104;2022-10-16T04:23:53;97606.09;;;13.74;100.00
61039;BME280;46919;45.816;3.104;2022-10-16T04:26:19;97606.03;;;13.69;100.00
61039;BME280;46919;45.816;3.104;2022-10-16T04:28:44;97598.97;;;13.68;100.00
61039;BME280;46919;45.816;3.104;2022-10-16T04:31:10;97600.84;;;13.68;100.00
61039;BME280;46919;45.816;3.104;2022-10-16T04:33:35;97591.91;;;13.67;100.00
61039;BME280;46919;45.816;3.104;2022-10-16T04:36:01;97599.16;;;13.62;100.00
61039;BME280;46919;45.816;3.104;2022-10-16T04:38:27;97608.44;;;13.66;100.00
61039;BME280;46919;45.816;3.104;2022-10-16T04:40:52;97601.88;;;13.62;100.00
61039;BME280;46919;45.816;3.104;2022-10-16T04:43:18;97606.97;;;13.58;100.00
61039;BME280;46919;45.816;3.104;2022-10-16T04:45:44;97609.44;;;13.59;100.00
61039;BME280;46919;45.816;3.104;2022-10-16T04:48:09;97616.44;;;13.55;100.00
61039;BME280;46919;45.816;3.104;2022-10-16T04:50:35;97613.47;;;13.57;100.00
61039;BME280;46919;45.816;3.104;2022-10-16T04:53:00;97613.72;;;13.55;100.00
61039;BME280;46919;45.816;3.104;2022-10-16T04:55:26;97615.31;;;13.51;100.00
61039;BME280;46919;45.816;3.104;2022-10-16T04:57:51;97608.16;;;13.45;100.00
61039;BME280;46919;45.816;3.104;2022-10-16T05:00:17;97607.56;;;13.43;100.00
61039;BME280;46919;45.816;3.104;2022-10-16T05:02:42;97608.56;;;13.37;100.00
61039;BME280;46919;45.816;3.104;2022-10-16T05:05:08;97600.28;;;13.27;100.00
61039;BME280;46919;45.816;3.104;2022-10-16T05:07:33;97595.53;;;13.17;100.00
61039;BME280;46919;45.816;3.104;2022-10-16T05:09:59;97602.75;;;13.11;100.00
61039;BME280;46919;45.816;3.104;2022-10-16T05:12:24;97608.28;;;12.99;100.00
61039;BME280;46919;45.816;3.104;2022-10-16T05:14:50;97603.09;;;12.98;100.00
61039;BME280;46919;45.816;3.104;2022-10-16T05:17:15;97621.00;;;12.99;100.00
61039;BME280;46919;45.816;3.104;2022-10-16T05:19:40;97617.41;;;12.93;100.00
61039;BME280;46919;45.816;3.104;2022-10-16T05:22:06;97619.38;;;12.98;100.00
61039;BME280;46919;45.816;3.104;2022-10-16T05:24:31;97628.41;;;13.03;100.00
61039;BME280;46919;45.816;3.104;2022-10-16T05:26:56;97630.88;;;13.05;100.00
61039;BME280;46919;45.816;3.104;2022-10-16T05:29:22;97627.66;;;13.08;100.00
61039;BME280;46919;45.816;3.104;2022-10-16T05:31:50;97621.91;;;13.04;100.00
61039;BME280;46919;45.816;3.104;2022-10-16T05:34:16;97621.19;;;13.09;100.00
61039;BME280;46919;45.816;3.104;2022-10-16T05:36:41;97626.09;;;13.12;100.00
61039;BME280;46919;45.816;3.104;2022-10-16T05:39:06;97623.47;;;13.17;100.00
61039;BME280;46919;45.816;3.104;2022-10-16T05:41:32;97619.69;;;13.18;100.00
61039;BME280;46919;45.816;3.104;2022-10-16T05:43:57;97620.19;;;13.32;100.00
61039;BME280;46919;45.816;3.104;2022-10-16T05:46:22;97614.75;;;13.32;100.00
61039;BME280;46919;45.816;3.104;2022-10-16T05:48:48;97614.53;;;13.34;100.00
61039;BME280;46919;45.816;3.104;2022-10-16T05:51:14;97618.69;;;13.41;100.00
61039;BME280;46919;45.816;3.104;2022-10-16T05:53:40;97611.44;;;13.47;100.00
61039;BME280;46919;45.816;3.104;2022-10-16T05:56:07;97612.78;;;13.67;100.00
61039;BME280;46919;45.816;3.104;2022-10-16T05:58:35;97606.50;;;13.83;100.00
61039;BME280;46919;45.816;3.104;2022-10-16T06:03:37;97602.94;;;14.05;100.00
61039;BME280;46919;45.816;3.104;2022-10-16T06:06:09;97606.00;;;14.36;100.00
61039;BME280;46919;45.816;3.104;2022-10-16T06:08:35;97605.69;;;14.59;100.00
61039;BME280;46919;45.816;3.104;2022-10-16T06:11:02;97616.72;;;14.75;100.00
61039;BME280;46919;45.816;3.104;2022-10-16T06:13:28;97620.88;;;14.82;99.93
61039;BME280;46919;45.816;3.104;2022-10-16T06:15:57;97619.34;;;14.97;98.74
61039;BME280;46919;45.816;3.104;2022-10-16T06:18:22;97623.44;;;14.94;98.76
61039;BME280;46919;45.816;3.104;2022-10-16T06:20:48;97614.84;;;15.13;97.06
61039;BME280;46919;45.816;3.104;2022-10-16T06:23:13;97618.94;;;15.15;97.05
61039;BME280;46919;45.816;3.104;2022-10-16T06:25:39;97620.38;;;15.23;96.27
61039;BME280;46919;45.816;3.104;2022-10-16T06:28:04;97626.91;;;15.27;95.67
61039;BME280;46919;45.816;3.104;2022-10-16T06:30:29;97631.28;;;15.28;95.81
61039;BME280;46919;45.816;3.104;2022-10-16T06:32:55;97635.66;;;15.29;95.76
61039;BME280;46919;45.816;3.104;2022-10-16T06:35:20;97634.91;;;15.39;95.31
61039;BME280;46919;45.816;3.104;2022-10-16T06:37:46;97633.28;;;15.43;94.87
61039;BME280;46919;45.816;3.104;2022-10-16T06:40:11;97642.34;;;15.54;94.17
61039;BME280;46919;45.816;3.104;2022-10-16T06:42:36;97643.47;;;15.58;93.99
61039;BME280;46919;45.816;3.104;2022-10-16T06:45:02;97643.47;;;15.58;94.07
61039;BME280;46919;45.816;3.104;2022-10-16T06:47:27;97642.69;;;15.63;93.51
61039;BME280;46919;45.816;3.104;2022-10-16T06:49:53;97648.69;;;15.65;93.72
61039;BME280;46919;45.816;3.104;2022-10-16T06:52:18;97653.34;;;15.69;93.01
61039;BME280;46919;45.816;3.104;2022-10-16T06:54:44;97652.34;;;15.81;92.10
61039;BME280;46919;45.816;3.104;2022-10-16T06:57:09;97656.72;;;15.87;92.04
61039;BME280;46919;45.816;3.104;2022-10-16T06:59:34;97660.59;;;15.96;91.21
61039;BME280;46919;45.816;3.104;2022-10-16T07:02:00;97660.34;;;16.03;91.00
61039;BME280;46919;45.816;3.104;2022-10-16T07:04:25;97661.22;;;16.14;90.27
61039;BME280;46919;45.816;3.104;2022-10-16T07:06:50;97660.97;;;16.15;90.66
61039;BME280;46919;45.816;3.104;2022-10-16T07:09:16;97665.88;;;16.18;90.81
61039;BME280;46919;45.816;3.104;2022-10-16T07:11:42;97670.53;;;16.23;90.74
61039;BME280;46919;45.816;3.104;2022-10-16T07:14:18;97669.22;;;16.36;89.70
61039;BME280;46919;45.816;3.104;2022-10-16T07:16:44;97660.22;;;16.40;89.20
61039;BME280;46919;45.816;3.104;2022-10-16T07:19:09;97666.22;;;16.42;89.47
61039;BME280;46919;45.816;3.104;2022-10-16T07:21:37;97669.53;;;16.60;88.42
61039;BME280;46919;45.816;3.104;2022-10-16T07:24:10;97673.94;;;16.71;87.99
61039;BME280;46919;45.816;3.104;2022-10-16T07:26:37;97677.81;;;16.86;87.47
61039;BME280;46919;45.816;3.104;2022-10-16T07:29:04;97682.19;;;16.92;87.81
61039;BME280;46919;45.816;3.104;2022-10-16T07:31:30;97678.63;;;16.96;86.90
61039;BME280;46919;45.816;3.104;2022-10-16T07:33:58;97680.84;;;17.10;85.59
61039;BME280;46919;45.816;3.104;2022-10-16T07:36:23;97688.78;;;17.11;86.12
61039;BME280;46919;45.816;3.104;2022-10-16T07:38:48;97690.94;;;17.14;85.15
61039;BME280;46919;45.816;3.104;2022-10-16T07:41:17;97683.31;;;17.16;85.71
61039;BME280;46919;45.816;3.104;2022-10-16T07:43:47;97689.31;;;17.24;84.98
61039;BME280;46919;45.816;3.104;2022-10-16T07:46:13;97692.03;;;17.24;85.62
61039;BME280;46919;45.816;3.104;2022-10-16T07:48:39;97693.13;;;17.28;85.28
61039;BME280;46919;45.816;3.104;2022-10-16T07:51:06;97685.22;;;17.31;85.34
61039;BME280;46919;45.816;3.104;2022-10-16T07:53:32;97690.69;;;17.42;84.48
61039;BME280;46919;45.816;3.104;2022-10-16T07:55:59;97698.34;;;17.45;84.50
61039;BME280;46919;45.816;3.104;2022-10-16T07:58:25;97700.22;;;17.44;85.12
61039;BME280;46919;45.816;3.104;2022-10-16T08:00:50;97701.59;;;17.47;85.29
61039;BME280;46919;45.816;3.104;2022-10-16T08:03:16;97703.50;;;17.51;85.29
61039;BME280;46919;45.816;3.104;2022-10-16T08:05:41;97707.31;;;17.55;85.18
61039;BME280;46919;45.816;3.104;2022-10-16T08:08:10;97704.31;;;17.62;85.30
61039;BME280;46919;45.816;3.104;2022-10-16T08:10:36;97708.97;;;17.67;85.41
61039;BME280;46919;45.816;3.104;2022-10-16T08:13:01;97711.13;;;17.70;85.25
61039;BME280;46919;45.816;3.104;2022-10-16T08:15:27;97709.75;;;17.72;84.96
61039;BME280;46919;45.816;3.104;2022-10-16T08:18:00;97713.31;;;17.73;85.00
61039;BME280;46919;45.816;3.104;2022-10-16T08:20:27;97718.50;;;17.74;84.85
61039;BME280;46919;45.816;3.104;2022-10-16T08:22:53;97720.41;;;17.74;85.16
61039;BME280;46919;45.816;3.104;2022-10-16T08:25:20;97716.31;;;17.71;85.36
61039;BME280;46919;45.816;3.104;2022-10-16T08:27:46;97718.50;;;17.69;85.48
61039;BME280;46919;45.816;3.104;2022-10-16T08:30:12;97717.97;;;17.67;85.71
61039;BME280;46919;45.816;3.104;2022-10-16T08:32:38;97716.34;;;17.61;86.06
61039;BME280;46919;45.816;3.104;2022-10-16T08:35:03;97718.50;;;17.69;85.82
61039;BME280;46919;45.816;3.104;2022-10-16T08:37:32;97725.31;;;17.87;85.26
61039;BME280;46919;45.816;3.104;2022-10-16T08:39:58;97728.06;;;17.98;84.86
61039;BME280;46919;45.816;3.104;2022-10-16T08:42:55;97720.41;;;18.05;84.52
61039;BME280;46919;45.816;3.104;2022-10-16T08:48:46;97719.25;;;18.21;83.86
61039;BME280;46919;45.816;3.104;2022-10-16T08:51:23;97721.94;;;18.32;84.01
61039;BME280;46919;45.816;3.104;2022-10-16T08:54:37;97712.59;;;18.48;83.50
61039;BME280;46919;45.816;3.104;2022-10-16T08:56:37;97716.31;;;18.68;82.74
61039;BME280;46919;45.816;3.104;2022-10-16T08:59:06;97715.13;;;18.89;81.08
61039;BME280;46919;45.816;3.104;2022-10-16T09:01:44;97718.38;;;18.96;80.68
61039;BME280;46919;45.816;3.104;2022-10-16T09:10:00;97726.91;;;19.29;79.06
61039;BME280;46919;45.816;3.104;2022-10-16T09:12:44;97727.47;;;19.26;79.95
61039;BME280;46919;45.816;3.104;2022-10-16T09:15:34;97731.13;;;19.16;80.45
61039;BME280;46919;45.816;3.104;2022-10-16T09:18:12;97733.63;;;19.08;80.75
61039;BME280;46919;45.816;3.104;2022-10-16T09:20:51;97742.97;;;19.07;80.99
61039;BME280;46919;45.816;3.104;2022-10-16T09:23:23;97729.84;;;19.04;80.97
61039;BME280;46919;45.816;3.104;2022-10-16T09:25:50;97729.88;;;18.98;81.64
61039;BME280;46919;45.816;3.104;2022-10-16T09:28:17;97728.75;;;18.99;81.93
61039;BME280;46919;45.816;3.104;2022-10-16T09:30:44;97727.66;;;19.00;82.16
61039;BME280;46919;45.816;3.104;2022-10-16T09:33:11;97724.94;;;19.00;81.99
61039;BME280;46919;45.816;3.104;2022-10-16T09:35:49;97722.72;;;19.03;82.07
61039;BME280;46919;45.816;3.104;2022-10-16T09:38:26;97723.81;;;19.01;82.44
61039;BME280;46919;45.816;3.104;2022-10-16T09:40:54;97726.19;;;19.13;82.19
61039;BME280;46919;45.816;3.104;2022-10-16T09:43:36;97724.69;;;19.31;81.17
61039;BME280;46919;45.816;3.104;2022-10-16T09:46:06;97726.75;;;19.50;80.64
61039;BME280;46919;45.816;3.104;2022-10-16T09:48:48;97722.72;;;19.71;79.71
61039;BME280;46919;45.816;3.104;2022-10-16T09:51:34;97721.94;;;19.95;79.12
61039;BME280;46919;45.816;3.104;2022-10-16T09:56:35;97722.81;;;20.20;78.63
61039;BME280;46919;45.816;3.104;2022-10-16T09:59:08;97717.44;;;20.34;77.99
61039;BME280;46919;45.816;3.104;2022-10-16T10:01:37;97730.16;;;20.49;78.01
61039;BME280;46919;45.816;3.104;2022-10-16T10:04:04;97717.31;;;20.68;76.15
61039;BME280;46919;45.816;3.104;2022-10-16T10:06:35;97719.75;;;20.89;74.28
61039;BME280;46919;45.816;3.104;2022-10-16T10:09:15;97705.72;;;21.09;73.26
61039;BME280;46919;45.816;3.104;2022-10-16T10:16:46;97710.09;;;21.48;71.13
61039;BME280;46919;45.816;3.104;2022-10-16T10:19:17;97704.50;;;21.53;70.36
61039;BME280;46919;45.816;3.104;2022-10-16T10:21:43;97694.94;;;21.65;69.60
61039;BME280;46919;45.816;3.104;2022-10-16T10:24:14;97710.69;;;21.78;67.86
61039;BME280;46919;45.816;3.104;2022-10-16T10:26:54;97697.03;;;21.87;67.13
61039;BME280;46919;45.816;3.104;2022-10-16T10:35:36;97695.13;;;22.15;64.62
61039;BME280;46919;45.816;3.104;2022-10-16T10:38:29;97692.19;;;22.25;64.70
61039;BME280;46919;45.816;3.104;2022-10-16T10:43:35;97690.56;;;22.52;62.82
61039;BME280;46919;45.816;3.104;2022-10-16T10:46:07;97692.59;;;22.60;61.99
61039;BME280;46919;45.816;3.104;2022-10-16T10:48:56;97693.19;;;22.71;61.40
61039;BME280;46919;45.816;3.104;2022-10-16T10:54:23;97692.22;;;22.90;61.93
61039;BME280;46919;45.816;3.104;2022-10-16T11:02:23;97683.00;;;23.08;60.18
61039;BME280;46919;45.816;3.104;2022-10-16T11:08:09;97690.28;;;23.27;58.82
61039;BME280;46919;45.816;3.104;2022-10-16T11:10:40;97694.66;;;23.28;59.38
61039;BME280;46919;45.816;3.104;2022-10-16T11:15:43;97688.94;;;23.47;57.44
61039;BME280;46919;45.816;3.104;2022-10-16T11:18:44;97683.31;;;23.52;56.34
61039;BME280;46919;45.816;3.104;2022-10-16T11:21:14;97687.56;;;23.58;57.28
61039;BME280;46919;45.816;3.104;2022-10-16T11:24:00;97681.31;;;23.66;56.02
61039;BME280;46919;45.816;3.104;2022-10-16T11:26:30;97673.38;;;23.74;56.02
61039;BME280;46919;45.816;3.104;2022-10-16T11:29:00;97678.34;;;23.85;56.35
61039;BME280;46919;45.816;3.104;2022-10-16T11:31:38;97673.34;;;23.96;55.56
61039;BME280;46919;45.816;3.104;2022-10-16T11:34:39;97674.84;;;24.02;55.37
61039;BME280;46919;45.816;3.104;2022-10-16T11:37:19;97665.78;;;24.11;54.56
61039;BME280;46919;45.816;3.104;2022-10-16T11:39:46;97676.38;;;24.17;54.49
61039;BME280;46919;45.816;3.104;2022-10-16T11:44:59;97663.91;;;24.37;53.34
61039;BME280;46919;45.816;3.104;2022-10-16T11:50:06;97658.09;;;24.48;53.50
61039;BME280;46919;45.816;3.104;2022-10-16T11:52:44;97654.56;;;24.65;52.26
61039;BME280;46919;45.816;3.104;2022-10-16T11:55:28;97656.53;;;24.82;51.61
61039;BME280;46919;45.816;3.104;2022-10-16T12:01:00;97652.81;;;25.12;49.83
61039;BME280;46919;45.816;3.104;2022-10-16T12:03:59;97646.47;;;25.21;49.36
61039;BME280;46919;45.816;3.104;2022-10-16T12:06:37;97643.03;;;25.33;48.21
61039;BME280;46919;45.816;3.104;2022-10-16T12:09:15;97638.66;;;25.40;49.83
61039;BME280;46919;45.816;3.104;2022-10-16T12:11:44;97635.53;;;25.51;49.10
61039;BME280;46919;45.816;3.104;2022-10-16T12:19:27;97620.53;;;25.60;48.71
61039;BME280;46919;45.816;3.104;2022-10-16T12:21:58;97610.88;;;25.75;48.71
61039;BME280;46919;45.816;3.104;2022-10-16T12:24:33;97618.63;;;25.91;47.84
61039;BME280;46919;45.816;3.104;2022-10-16T12:27:00;97628.84;;;26.08;47.84
61039;BME280;46919;45.816;3.104;2022-10-16T12:31:57;97619.44;;;26.30;47.49
61039;BME280;46919;45.816;3.104;2022-10-16T12:39:35;97620.94;;;26.48;46.44
61039;BME280;46919;45.816;3.104;2022-10-16T12:42:19;97630.53;;;26.30;45.94
61039;BME280;46919;45.816;3.104;2022-10-16T12:44:45;97625.75;;;26.09;45.67
61039;BME280;46919;45.816;3.104;2022-10-16T12:47:24;97618.63;;;25.91;45.94
61039;BME280;46919;45.816;3.104;2022-10-16T12:49:59;97636.38;;;25.90;46.40
61039;BME280;46919;45.816;3.104;2022-10-16T12:52:27;97628.88;;;25.99;45.69
61039;BME280;46919;45.816;3.104;2022-10-16T12:54:56;97619.59;;;25.95;45.94
61039;BME280;46919;45.816;3.104;2022-10-16T13:05:55;97607.63;;;26.12;45.60
61039;BME280;46919;45.816;3.104;2022-10-16T13:08:57;97614.84;;;26.04;45.05
61039;BME280;46919;45.816;3.104;2022-10-16T13:19:46;97604.94;;;26.33;44.33
61039;BME280;46919;45.816;3.104;2022-10-16T13:27:49;97606.06;;;26.32;43.30
61039;BME280;46919;45.816;3.104;2022-10-16T13:30:26;97600.22;;;26.25;44.42
61039;BME280;46919;45.816;3.104;2022-10-16T13:33:47;97609.75;;;26.15;43.84
61039;BME280;46919;45.816;3.104;2022-10-16T13:35:54;97622.38;;;25.95;44.72
61039;BME280;46919;45.816;3.104;2022-10-16T13:38:27;97608.25;;;25.79;45.37
61039;BME280;46919;45.816;3.104;2022-10-16T13:41:00;97612.06;;;26.04;44.74
61039;BME280;46919;45.816;3.104;2022-10-16T13:43:52;97610.13;;;25.96;44.28
61039;BME280;46919;45.816;3.104;2022-10-16T13:46:21;97616.88;;;25.77;44.72
61039;BME280;46919;45.816;3.104;2022-10-16T13:48:57;97618.69;;;25.73;44.96
61039;BME280;46919;45.816;3.104;2022-10-16T13:51:23;97615.63;;;25.66;45.01
61039;BME280;46919;45.816;3.104;2022-10-16T13:53:48;97614.72;;;25.44;45.65
61039;BME280;46919;45.816;3.104;2022-10-16T13:56:16;97625.47;;;25.37;46.22
61039;BME280;46919;45.816;3.104;2022-10-16T13:58:42;97615.88;;;25.26;46.68
61039;BME280;46919;45.816;3.104;2022-10-16T14:03:42;97627.44;;;25.28;47.30
61039;BME280;46919;45.816;3.104;2022-10-16T14:06:16;97621.56;;;25.21;47.09
61039;BME280;46919;45.816;3.104;2022-10-16T14:08:44;97623.69;;;25.24;47.46
61039;BME280;46919;45.816;3.104;2022-10-16T14:11:11;97635.22;;;25.26;47.43
61039;BME280;46919;45.816;3.104;2022-10-16T14:13:39;97636.06;;;25.18;46.96
61039;BME280;46919;45.816;3.104;2022-10-16T14:16:10;97644.53;;;25.12;47.03
61039;BME280;46919;45.816;3.104;2022-10-16T14:18:40;97639.63;;;25.18;47.04
61039;BME280;46919;45.816;3.104;2022-10-16T14:21:07;97633.75;;;25.37;46.85
61039;BME280;46919;45.816;3.104;2022-10-16T14:23:38;97631.00;;;25.46;46.39
61039;BME280;46919;45.816;3.104;2022-10-16T14:28:33;97636.69;;;25.14;47.00
61039;BME280;46919;45.816;3.104;2022-10-16T14:31:00;97635.06;;;24.96;47.41
61039;BME280;46919;45.816;3.104;2022-10-16T14:36:14;97650.69;;;24.66;47.77
61039;BME280;46919;45.816;3.104;2022-10-16T14:41:22;97651.03;;;24.73;47.79
61039;BME280;46919;45.816;3.104;2022-10-16T14:43:52;97655.59;;;24.95;47.10
61039;BME280;46919;45.816;3.104;2022-10-16T14:46:21;97660.94;;;25.18;47.49
61039;BME280;46919;45.816;3.104;2022-10-16T14:48:54;97658.16;;;25.44;46.96
61039;BME280;46919;45.816;3.104;2022-10-16T14:51:22;97670.53;;;25.46;46.76
61039;BME280;46919;45.816;3.104;2022-10-16T14:53:49;97655.91;;;25.46;46.55
61039;BME280;46919;45.816;3.104;2022-10-16T14:56:20;97659.94;;;25.57;46.23
61039;BME280;46919;45.816;3.104;2022-10-16T14:58:47;97655.34;;;25.61;46.35
61039;BME280;46919;45.816;3.104;2022-10-16T15:01:12;97656.19;;;25.62;46.16